Time;durP1;ratioP1;P1;durP2;ratioP2;P2;SDS_P1;SDS_P2;PMS_P1;PMS_P2;Temp;Humidity;BMP_temperature;BMP_pressure;BME280_temperature;BME280_humidity;BME280_pressure;Samples;Min_cycle;Max_cycle;Signal;HPM_P1;HPM_P2
2021/03/04 00:00:46;;;;;;;2.40;0.98;;;27.30;48.60;;;;;;5001865;28;20025;-67
2021/03/04 00:03:14;;;;;;;8.10;1.25;;;27.30;47.80;;;;;;4998782;28;20052;-66
2021/03/04 00:05:42;;;;;;;4.00;1.20;;;27.10;48.40;;;;;;5001799;28;20518;-69
2021/03/04 00:08:09;;;;;;;4.72;1.10;;;26.90;49.50;;;;;;4997948;28;21011;-67
2021/03/04 00:10:36;;;;;;;3.00;0.90;;;27.20;48.30;;;;;;5001103;28;20038;-67
2021/03/04 00:13:05;;;;;;;3.38;0.95;;;26.80;50.00;;;;;;4998799;28;20034;-67
2021/03/04 00:15:34;;;;;;;7.75;1.17;;;27.30;49.50;;;;;;5000455;28;20033;-67
2021/03/04 00:18:02;;;;;;;4.45;1.33;;;27.70;48.10;;;;;;4997237;28;20034;-66
2021/03/04 00:20:31;;;;;;;3.45;1.00;;;27.50;45.30;;;;;;5000146;28;20040;-69
2021/03/04 00:23:00;;;;;;;4.85;1.55;;;27.40;46.50;;;;;;4999312;28;20064;-67
2021/03/04 00:25:35;;;;;;;6.03;2.13;;;27.40;48.60;;;;;;5000281;28;20057;-67
2021/03/04 00:28:05;;;;;;;4.97;1.88;;;27.30;47.10;;;;;;4998712;28;20066;-68
2021/03/04 00:30:33;;;;;;;3.97;1.35;;;27.50;47.00;;;;;;5002021;28;20386;-66
2021/03/04 00:33:00;;;;;;;6.00;1.90;;;27.60;46.30;;;;;;4999312;28;20133;-67
2021/03/04 00:35:28;;;;;;;5.90;1.23;;;27.60;46.90;;;;;;4998763;28;20029;-68
2021/03/04 00:37:55;;;;;;;6.00;1.65;;;27.70;47.20;;;;;;4996218;28;20026;-69
2021/03/04 00:40:23;;;;;;;5.72;1.50;;;27.20;47.90;;;;;;5000992;28;20033;-67
2021/03/04 00:42:51;;;;;;;4.90;1.33;;;27.40;48.10;;;;;;5001078;28;20156;-67
2021/03/04 00:45:22;;;;;;;4.25;1.48;;;28.20;47.70;;;;;;4997567;28;20045;-70
2021/03/04 00:47:49;;;;;;;6.47;1.50;;;28.20;46.00;;;;;;4994709;28;20042;-67
2021/03/04 00:50:19;;;;;;;3.08;1.27;;;28.10;45.80;;;;;;4998520;28;20041;-66
2021/03/04 00:52:46;;;;;;;3.42;1.55;;;28.10;46.00;;;;;;5002710;28;20033;-68
2021/03/04 00:55:14;;;;;;;5.28;1.83;;;27.70;46.20;;;;;;4998616;28;20099;-66
2021/03/04 00:57:42;;;;;;;5.82;1.30;;;27.70;47.40;;;;;;4997764;28;20042;-66
2021/03/04 01:00:10;;;;;;;5.20;1.75;;;28.20;47.40;;;;;;5001288;28;20033;-69
2021/03/04 01:02:37;;;;;;;5.80;2.67;;;28.50;46.00;;;;;;5001236;28;20863;-66
2021/03/04 01:05:06;;;;;;;4.88;1.73;;;28.80;46.40;;;;;;4997378;28;20045;-65
2021/03/04 01:07:33;;;;;;;7.78;1.73;;;28.80;46.90;;;;;;5001470;28;20037;-70
2021/03/04 01:10:05;;;;;;;4.13;1.75;;;28.70;45.00;;;;;;5005396;28;20038;-70
2021/03/04 01:12:32;;;;;;;7.70;1.73;;;28.60;45.80;;;;;;5003925;28;20048;-66
2021/03/04 01:15:00;;;;;;;3.60;1.88;;;28.10;44.60;;;;;;5000219;28;20647;-71
2021/03/04 01:17:27;;;;;;;6.95;2.03;;;27.70;46.10;;;;;;5001564;28;20143;-67
2021/03/04 01:19:56;;;;;;;6.20;1.50;;;27.90;45.40;;;;;;5005352;28;20535;-71
2021/03/04 01:22:23;;;;;;;6.25;1.95;;;28.70;46.00;;;;;;5005636;28;20030;-68
2021/03/04 01:24:50;;;;;;;5.47;1.88;;;28.70;45.60;;;;;;5001561;28;20029;-70
2021/03/04 01:27:18;;;;;;;5.43;1.88;;;28.70;46.70;;;;;;5002041;28;20297;-70
2021/03/04 01:29:45;;;;;;;6.78;1.80;;;29.60;44.60;;;;;;5005726;28;20634;-68
2021/03/04 01:32:13;;;;;;;4.80;1.65;;;29.60;43.30;;;;;;5005643;28;20026;-69
2021/03/04 01:34:40;;;;;;;3.90;2.03;;;29.50;43.50;;;;;;5001614;28;20113;-66
2021/03/04 01:37:07;;;;;;;5.10;1.52;;;29.20;42.70;;;;;;5001751;28;20038;-67
2021/03/04 01:39:35;;;;;;;4.68;1.73;;;29.10;43.90;;;;;;5004047;28;20044;-70
2021/03/04 01:42:02;;;;;;;5.32;1.88;;;29.20;43.40;;;;;;5003440;28;20040;-71
2021/03/04 01:44:30;;;;;;;3.05;1.92;;;29.50;43.30;;;;;;5002601;28;20141;-70
2021/03/04 01:46:57;;;;;;;5.43;2.05;;;29.80;42.10;;;;;;5001467;28;20053;-69
2021/03/04 01:49:26;;;;;;;2.83;1.70;;;29.80;41.20;;;;;;5001529;28;20583;-67
2021/03/04 01:51:54;;;;;;;4.15;1.58;;;29.50;44.40;;;;;;5004674;28;20026;-68
2021/03/04 01:54:21;;;;;;;4.10;1.45;;;29.60;43.00;;;;;;4999097;28;20037;-68
2021/03/04 01:56:49;;;;;;;5.28;1.80;;;30.20;41.20;;;;;;5000037;28;20036;-66
2021/03/04 01:59:17;;;;;;;3.03;1.63;;;30.60;43.20;;;;;;5000541;28;20045;-69
2021/03/04 02:01:44;;;;;;;7.75;2.08;;;31.00;41.30;;;;;;5002167;28;20038;-68
2021/03/04 02:04:12;;;;;;;5.10;1.48;;;30.70;40.90;;;;;;5000762;28;20495;-69
2021/03/04 02:07:02;;;;;;;3.83;1.65;;;30.40;40.10;;;;;;5003813;28;20562;-67
2021/03/04 02:09:33;;;;;;;3.65;2.33;;;29.90;41.50;;;;;;5003317;28;20567;-67
2021/03/04 02:12:18;;;;;;;4.35;1.60;;;29.90;42.00;;;;;;5003127;28;20531;-66
2021/03/04 02:15:02;;;;;;;4.88;1.60;;;29.90;41.00;;;;;;5002659;28;20540;-67
2021/03/04 02:17:33;;;;;;;7.18;2.28;;;29.70;42.80;;;;;;4999957;28;20045;-66
2021/03/04 02:20:07;;;;;;;3.75;2.00;;;29.80;43.90;;;;;;5002438;28;20018;-67
2021/03/04 02:22:59;;;;;;;3.55;1.73;;;30.30;42.20;;;;;;5002011;28;20099;-65
2021/03/04 02:25:37;;;;;;;7.75;1.95;;;30.90;41.30;;;;;;5000562;28;20108;-66
2021/03/04 02:28:06;;;;;;;4.03;1.55;;;30.80;41.70;;;;;;4998270;28;20045;-67
2021/03/04 02:30:35;;;;;;;3.45;1.58;;;30.90;40.50;;;;;;5003290;28;20026;-69
2021/03/04 02:33:17;;;;;;;3.67;2.05;;;30.80;40.40;;;;;;4998331;28;20042;-68
2021/03/04 02:35:45;;;;;;;3.72;1.90;;;30.90;40.90;;;;;;5003246;28;20037;-67
2021/03/04 02:38:16;;;;;;;4.85;1.90;;;30.70;42.70;;;;;;4998326;28;20493;-69
2021/03/04 02:40:46;;;;;;;3.72;2.22;;;31.10;40.30;;;;;;5004186;28;20408;-70
2021/03/04 02:43:16;;;;;;;6.03;1.92;;;31.40;38.20;;;;;;5001046;28;20155;-66
2021/03/04 02:45:44;;;;;;;2.97;1.60;;;31.70;42.30;;;;;;5003234;28;20050;-66
2021/03/04 02:48:16;;;;;;;3.90;1.50;;;32.20;40.90;;;;;;4999027;28;20151;-67
2021/03/04 02:50:46;;;;;;;5.57;1.80;;;32.90;36.70;;;;;;5002812;28;20037;-68
2021/03/04 02:53:14;;;;;;;5.32;1.75;;;32.40;37.70;;;;;;5000359;28;20076;-70
2021/03/04 02:55:42;;;;;;;4.55;1.45;;;31.60;40.10;;;;;;5002382;28;20681;-67
2021/03/04 02:58:11;;;;;;;3.88;1.50;;;31.20;38.70;;;;;;5000145;28;20040;-67
2021/03/04 03:00:40;;;;;;;3.78;1.73;;;32.10;41.40;;;;;;5002141;28;20045;-67
2021/03/04 03:03:16;;;;;;;4.07;2.58;;;32.80;38.10;;;;;;4997875;28;21262;-67
2021/03/04 03:05:46;;;;;;;4.80;1.65;;;33.20;38.20;;;;;;5003557;28;20034;-67
2021/03/04 03:08:17;;;;;;;2.65;1.23;;;33.80;36.80;;;;;;4999758;28;20045;-67
2021/03/04 03:10:48;;;;;;;2.05;1.23;;;34.20;37.20;;;;;;5003492;28;20095;-66
2021/03/04 03:13:16;;;;;;;5.50;1.73;;;34.20;34.60;;;;;;4996354;28;20075;-67
2021/03/04 03:15:43;;;;;;;3.10;1.38;;;34.40;35.60;;;;;;5003185;28;20079;-67
2021/03/04 03:18:12;;;;;;;5.55;1.50;;;34.50;35.90;;;;;;4999154;28;20033;-70
2021/03/04 03:20:39;;;;;;;4.53;1.40;;;34.60;34.10;;;;;;5002950;28;20685;-71
2021/03/04 03:23:07;;;;;;;4.93;1.70;;;34.70;35.50;;;;;;5001566;28;20045;-66
2021/03/04 03:25:34;;;;;;;4.88;1.63;;;34.90;35.10;;;;;;5002490;28;20026;-67
2021/03/04 03:28:02;;;;;;;4.75;1.45;;;34.90;33.70;;;;;;4999424;28;20126;-69
2021/03/04 03:30:30;;;;;;;3.05;1.80;;;35.10;35.10;;;;;;5001231;28;20104;-67
2021/03/04 03:33:03;;;;;;;3.67;1.77;;;35.10;35.70;;;;;;5001712;28;20034;-66
2021/03/04 03:35:31;;;;;;;3.85;1.35;;;35.20;34.80;;;;;;5002367;28;20034;-65
2021/03/04 03:38:01;;;;;;;3.25;1.50;;;34.80;33.60;;;;;;4995802;28;20122;-66
2021/03/04 03:40:30;;;;;;;3.83;1.17;;;34.20;34.80;;;;;;4999766;28;20080;-67
2021/03/04 03:43:00;;;;;;;4.72;1.52;;;33.70;35.30;;;;;;5001080;28;20030;-67
2021/03/04 03:45:36;;;;;;;3.03;1.40;;;33.70;34.50;;;;;;5000354;28;20033;-67
2021/03/04 03:48:07;;;;;;;4.65;1.83;;;33.40;35.80;;;;;;4998484;28;20143;-67
2021/03/04 03:50:36;;;;;;;3.90;2.05;;;32.80;36.20;;;;;;5001515;28;20033;-66
2021/03/04 03:53:05;;;;;;;4.63;1.92;;;32.40;35.70;;;;;;5001267;28;20424;-70
2021/03/04 03:55:32;;;;;;;4.13;1.50;;;32.40;37.20;;;;;;5001840;28;20087;-66
2021/03/04 03:58:01;;;;;;;5.20;1.73;;;32.90;35.80;;;;;;4998943;28;20030;-67
2021/03/04 04:00:29;;;;;;;5.45;1.58;;;33.40;35.30;;;;;;5001691;28;20025;-66
2021/03/04 04:03:02;;;;;;;5.93;1.38;;;33.90;37.40;;;;;;5000767;28;20026;-68
2021/03/04 04:05:31;;;;;;;2.90;1.70;;;33.70;35.10;;;;;;5000086;28;20117;-66
2021/03/04 04:08:00;;;;;;;3.42;1.60;;;33.20;35.00;;;;;;4998907;28;20494;-66
2021/03/04 04:10:30;;;;;;;6.57;1.73;;;32.90;34.70;;;;;;5001954;28;20473;-67
2021/03/04 04:12:58;;;;;;;5.22;1.88;;;32.40;36.70;;;;;;4999830;28;20018;-67
2021/03/04 04:15:27;;;;;;;2.85;1.58;;;32.60;37.40;;;;;;5000619;28;20029;-70
2021/03/04 04:18:05;;;;;;;2.00;1.25;;;32.80;36.10;;;;;;4999320;28;20061;-67
2021/03/04 04:20:33;;;;;;;3.60;1.55;;;32.90;35.70;;;;;;5001251;28;20096;-67
2021/03/04 04:23:01;;;;;;;5.47;1.45;;;33.10;38.10;;;;;;4999948;28;20038;-68
2021/03/04 04:25:29;;;;;;;4.43;1.95;;;33.20;35.00;;;;;;4999836;28;20168;-67
2021/03/04 04:27:57;;;;;;;12.65;2.45;;;32.90;34.70;;;;;;4998150;28;20473;-66
2021/03/04 04:30:26;;;;;;;4.07;1.80;;;32.60;35.00;;;;;;5001326;28;20509;-69
2021/03/04 04:32:53;;;;;;;4.18;1.40;;;32.70;35.20;;;;;;5002226;28;20029;-67
2021/03/04 04:35:22;;;;;;;2.72;1.98;;;32.00;36.80;;;;;;5000423;28;20088;-67
2021/03/04 04:37:49;;;;;;;5.57;2.00;;;32.10;36.80;;;;;;4997494;28;20026;-66
2021/03/04 04:40:17;;;;;;;3.25;1.33;;;32.10;37.00;;;;;;4999873;28;20038;-66
2021/03/04 04:42:44;;;;;;;3.03;1.45;;;32.00;37.30;;;;;;5004670;28;20109;-68
2021/03/04 04:45:12;;;;;;;4.38;1.27;;;32.10;37.00;;;;;;4984829;28;20060;-67
2021/03/04 04:47:39;;;;;;;3.47;1.50;;;32.60;37.70;;;;;;5002673;28;20273;-67
2021/03/04 04:50:07;;;;;;;6.82;1.60;;;32.80;37.10;;;;;;5004939;28;20065;-67
2021/03/04 04:52:35;;;;;;;4.30;1.60;;;33.00;36.20;;;;;;5006009;28;20036;-67
2021/03/04 04:55:02;;;;;;;2.20;1.30;;;32.90;34.70;;;;;;5003973;28;20072;-67
2021/03/04 04:57:30;;;;;;;3.97;1.52;;;33.10;35.90;;;;;;5003085;28;20030;-68
2021/03/04 04:59:57;;;;;;;5.18;2.00;;;33.10;35.10;;;;;;5006422;28;20650;-67
2021/03/04 05:02:25;;;;;;;4.65;1.45;;;33.30;35.60;;;;;;5003597;28;20067;-69
2021/03/04 05:04:52;;;;;;;2.80;1.35;;;32.90;34.50;;;;;;5003413;28;20042;-69
2021/03/04 05:07:20;;;;;;;5.97;2.53;;;32.30;35.60;;;;;;5001796;28;20038;-69
2021/03/04 05:09:47;;;;;;;5.50;1.52;;;32.10;37.10;;;;;;5004987;28;20052;-69
2021/03/04 05:12:14;;;;;;;3.38;1.42;;;31.90;36.70;;;;;;5003455;28;20551;-72
2021/03/04 05:14:42;;;;;;;4.25;1.50;;;31.60;37.00;;;;;;5002394;28;20140;-67
2021/03/04 05:17:09;;;;;;;2.70;1.15;;;31.70;36.70;;;;;;5001613;28;20038;-67
2021/03/04 05:19:36;;;;;;;2.10;1.30;;;31.90;37.20;;;;;;5005349;28;20026;-69
2021/03/04 05:22:04;;;;;;;4.72;1.70;;;32.10;36.10;;;;;;5004792;28;20037;-67
2021/03/04 05:24:32;;;;;;;7.03;1.60;;;32.00;36.40;;;;;;5003006;28;20056;-68
2021/03/04 05:26:59;;;;;;;3.80;1.70;;;32.00;36.30;;;;;;5002557;28;20049;-67
2021/03/04 05:29:26;;;;;;;5.05;1.67;;;32.00;36.70;;;;;;5002348;28;20276;-68
2021/03/04 05:31:54;;;;;;;2.47;1.10;;;32.20;36.30;;;;;;5004501;28;20034;-67
2021/03/04 05:34:22;;;;;;;3.85;1.40;;;32.40;36.70;;;;;;5001232;28;20645;-67
2021/03/04 05:36:53;;;;;;;3.70;1.10;;;32.50;36.90;;;;;;5002950;28;20042;-68
2021/03/04 05:39:20;;;;;;;4.13;1.20;;;32.30;35.90;;;;;;5002525;28;20038;-68
2021/03/04 05:41:48;;;;;;;4.90;2.05;;;32.10;36.00;;;;;;5004960;28;20045;-67
2021/03/04 05:44:16;;;;;;;6.47;1.50;;;32.00;36.10;;;;;;5002264;28;20394;-67
2021/03/04 05:46:47;;;;;;;5.43;1.63;;;31.80;35.90;;;;;;5003093;28;20034;-67
2021/03/04 05:49:18;;;;;;;3.00;1.20;;;31.80;35.80;;;;;;5002552;28;20476;-68
2021/03/04 05:51:53;;;;;;;3.63;1.00;;;31.70;36.10;;;;;;5002346;28;20123;-67
2021/03/04 05:54:22;;;;;;;6.13;1.90;;;31.80;36.80;;;;;;5001840;28;20042;-68
2021/03/04 05:56:49;;;;;;;3.10;1.08;;;31.90;35.40;;;;;;5002693;28;20041;-68
2021/03/04 05:59:18;;;;;;;4.88;1.48;;;31.70;36.20;;;;;;5001683;28;20030;-68
2021/03/04 06:01:45;;;;;;;3.50;1.05;;;31.70;36.70;;;;;;5003844;28;20053;-69
2021/03/04 06:04:13;;;;;;;3.08;1.48;;;31.80;36.40;;;;;;4999047;28;20026;-68
2021/03/04 06:06:40;;;;;;;2.70;1.20;;;31.80;36.00;;;;;;5000946;28;20054;-68
2021/03/04 06:09:08;;;;;;;4.22;1.38;;;31.80;35.80;;;;;;5002806;28;20145;-68
2021/03/04 06:11:38;;;;;;;3.80;1.00;;;31.60;36.10;;;;;;5004217;28;20033;-67
2021/03/04 06:14:06;;;;;;;5.53;1.85;;;31.30;36.50;;;;;;5000785;28;20049;-67
2021/03/04 06:16:33;;;;;;;1.88;1.00;;;31.20;37.60;;;;;;5002615;28;20468;-67
2021/03/04 06:19:01;;;;;;;2.63;1.10;;;31.30;36.80;;;;;;5001657;28;20704;-68
2021/03/04 06:21:29;;;;;;;2.25;1.23;;;31.40;37.30;;;;;;5003863;28;20037;-67
2021/03/04 06:23:58;;;;;;;4.57;1.48;;;31.50;36.40;;;;;;5001269;28;20041;-68
2021/03/04 06:26:29;;;;;;;2.85;1.23;;;31.50;36.50;;;;;;5002793;28;20030;-67
2021/03/04 06:28:57;;;;;;;1.80;0.98;;;31.40;38.30;;;;;;5000162;28;20034;-67
2021/03/04 06:31:24;;;;;;;4.82;1.92;;;31.20;36.50;;;;;;5003556;28;20037;-67
2021/03/04 06:33:52;;;;;;;2.45;1.05;;;31.00;37.50;;;;;;5000962;28;20049;-69
2021/03/04 06:36:19;;;;;;;4.13;1.08;;;30.90;36.90;;;;;;5002945;28;20037;-68
2021/03/04 06:38:57;;;;;;;2.45;1.27;;;30.70;37.00;;;;;;4999888;28;20072;-67
2021/03/04 06:41:25;;;;;;;2.95;1.08;;;30.60;37.40;;;;;;5003709;28;20029;-71
2021/03/04 06:44:02;;;;;;;3.58;1.60;;;30.60;38.80;;;;;;4999954;28;20534;-68
2021/03/04 06:46:30;;;;;;;4.15;1.67;;;30.80;38.30;;;;;;5003165;28;20380;-68
2021/03/04 06:48:57;;;;;;;5.97;1.92;;;30.80;38.10;;;;;;5000539;28;20053;-70
2021/03/04 06:51:25;;;;;;;4.25;1.33;;;31.00;38.10;;;;;;5001614;28;20424;-69
2021/03/04 06:53:53;;;;;;;5.57;1.85;;;31.00;38.30;;;;;;5000660;28;20127;-69
2021/03/04 06:56:30;;;;;;;3.85;1.40;;;31.00;38.00;;;;;;5002463;28;20034;-69
2021/03/04 06:59:02;;;;;;;13.23;2.20;;;31.00;37.90;;;;;;5000572;28;20515;-67
2021/03/04 07:01:30;;;;;;;3.05;1.25;;;30.90;37.50;;;;;;5003057;28;20045;-68
2021/03/04 07:03:57;;;;;;;4.03;1.58;;;30.70;38.20;;;;;;5000186;28;20045;-67
2021/03/04 07:06:26;;;;;;;6.85;1.30;;;30.70;39.40;;;;;;5002622;28;20046;-68
2021/03/04 07:08:55;;;;;;;5.22;1.50;;;30.50;37.20;;;;;;4999351;28;20077;-67
2021/03/04 07:11:24;;;;;;;1.85;1.20;;;30.40;38.80;;;;;;5002703;28;20065;-68
2021/03/04 07:13:53;;;;;;;4.10;1.10;;;30.40;39.00;;;;;;5000906;28;20033;-67
2021/03/04 07:16:43;;;;;;;3.80;2.25;;;30.30;38.40;;;;;;5001439;28;20045;-67
2021/03/04 07:19:12;;;;;;;7.72;1.75;;;30.30;38.50;;;;;;4999610;28;20353;-68
2021/03/04 07:21:51;;;;;;;5.18;2.13;;;30.10;39.20;;;;;;5003026;28;20030;-68
2021/03/04 07:24:18;;;;;;;4.75;1.52;;;29.90;39.00;;;;;;5000265;28;20129;-69
2021/03/04 07:26:47;;;;;;;10.80;1.60;;;29.80;39.00;;;;;;5000172;28;20030;-68
2021/03/04 07:29:15;;;;;;;3.08;1.40;;;29.70;38.90;;;;;;5000446;28;20120;-69
2021/03/04 07:31:44;;;;;;;2.90;1.20;;;29.60;39.50;;;;;;5002793;28;20603;-68
2021/03/04 07:34:13;;;;;;;7.63;1.95;;;29.50;39.00;;;;;;5000913;28;20026;-67
2021/03/04 07:36:44;;;;;;;4.10;1.90;;;29.40;39.30;;;;;;5001268;28;20489;-70
2021/03/04 07:39:13;;;;;;;8.25;1.98;;;29.30;40.50;;;;;;5000349;28;20037;-70
2021/03/04 07:41:40;;;;;;;5.95;1.30;;;29.20;40.50;;;;;;4999154;28;20072;-68
2021/03/04 07:44:09;;;;;;;5.22;1.52;;;29.20;41.10;;;;;;4998009;28;20037;-70
2021/03/04 07:46:44;;;;;;;7.47;2.10;;;29.10;40.90;;;;;;5001365;28;20598;-70
2021/03/04 07:49:12;;;;;;;4.35;1.58;;;29.00;41.10;;;;;;4997469;28;20149;-69
2021/03/04 07:51:47;;;;;;;4.28;1.58;;;28.90;40.60;;;;;;5000888;28;20098;-67
2021/03/04 07:54:25;;;;;;;10.27;1.60;;;28.80;40.20;;;;;;4997163;28;20112;-69
2021/03/04 07:57:06;;;;;;;2.20;1.00;;;28.70;40.10;;;;;;4998329;28;20035;-68
2021/03/04 07:59:35;;;;;;;4.30;1.38;;;28.70;40.90;;;;;;5001334;28;20033;-68
2021/03/04 08:02:04;;;;;;;6.35;1.65;;;28.60;42.20;;;;;;5001630;28;20030;-73
2021/03/04 08:04:34;;;;;;;1.55;0.90;;;28.40;41.20;;;;;;4998268;28;20069;-69
2021/03/04 08:07:03;;;;;;;5.90;1.30;;;28.30;42.90;;;;;;4999266;28;20747;-68
2021/03/04 08:09:32;;;;;;;3.33;1.20;;;28.20;43.80;;;;;;4999639;28;20053;-68
2021/03/04 08:12:12;;;;;;;5.53;2.47;;;28.00;43.30;;;;;;5002241;28;20041;-70
2021/03/04 08:14:41;;;;;;;4.47;1.60;;;28.00;44.80;;;;;;4998493;28;20103;-68
2021/03/04 08:17:09;;;;;;;4.88;1.42;;;27.90;43.00;;;;;;4992197;28;20913;-68
2021/03/04 08:19:38;;;;;;;2.75;1.20;;;27.80;44.10;;;;;;5000136;28;20068;-69
2021/03/04 08:22:10;;;;;;;5.43;1.00;;;27.80;44.50;;;;;;5000453;28;20221;-69
2021/03/04 08:24:39;;;;;;;3.45;1.30;;;27.80;43.10;;;;;;4997439;28;20039;-68
2021/03/04 08:27:07;;;;;;;2.30;1.30;;;27.60;43.40;;;;;;4997338;28;21425;-68
2021/03/04 08:29:35;;;;;;;5.82;1.05;;;27.40;43.50;;;;;;4997635;28;20050;-67
2021/03/04 08:32:03;;;;;;;4.00;1.58;;;27.30;43.50;;;;;;5000140;28;20492;-69
2021/03/04 08:34:40;;;;;;;3.15;1.40;;;27.10;44.10;;;;;;4997953;28;20172;-70
2021/03/04 08:37:23;;;;;;;3.15;1.38;;;27.00;45.10;;;;;;4996961;28;20697;-71
2021/03/04 08:40:02;;;;;;;4.50;1.60;;;27.00;45.10;;;;;;4999596;28;20133;-69
2021/03/04 08:42:29;;;;;;;4.90;2.13;;;26.90;44.30;;;;;;5000312;28;20037;-69
2021/03/04 08:44:57;;;;;;;5.25;1.83;;;26.80;44.50;;;;;;4918971;28;2342974;-68
2021/03/04 08:47:25;;;;;;;2.30;1.30;;;26.80;44.50;;;;;;4996082;28;20516;-69
2021/03/04 08:49:58;;;;;;;5.50;1.90;;;26.80;45.00;;;;;;5001222;28;20050;-68
2021/03/04 08:52:28;;;;;;;5.07;1.75;;;26.80;45.00;;;;;;4999686;28;20100;-68
2021/03/04 08:55:03;;;;;;;8.75;1.92;;;26.80;45.30;;;;;;4999468;28;20188;-68
2021/03/04 08:57:30;;;;;;;5.85;1.50;;;26.70;45.40;;;;;;4999103;28;20084;-67
2021/03/04 09:00:08;;;;;;;3.40;1.75;;;26.70;45.90;;;;;;5001473;28;20061;-68
2021/03/04 09:02:36;;;;;;;3.75;1.88;;;26.60;46.20;;;;;;5002204;28;20030;-69
2021/03/04 09:05:06;;;;;;;5.60;2.15;;;26.50;46.60;;;;;;4999571;28;20168;-68
2021/03/04 09:07:44;;;;;;;5.95;1.60;;;26.30;47.10;;;;;;4998260;28;20364;-67
2021/03/04 09:10:15;;;;;;;5.13;1.88;;;26.10;47.90;;;;;;5001528;28;20046;-67
2021/03/04 09:12:47;;;;;;;3.25;1.40;;;25.90;48.20;;;;;;5001523;28;20456;-68
2021/03/04 09:15:20;;;;;;;4.45;2.08;;;25.90;48.60;;;;;;4998167;28;20550;-70
2021/03/04 09:17:47;;;;;;;5.15;1.40;;;25.70;48.70;;;;;;4997632;28;20703;-71
2021/03/04 09:20:16;;;;;;;8.05;1.83;;;25.70;49.10;;;;;;4999043;28;20505;-69
2021/03/04 09:22:45;;;;;;;7.90;1.48;;;25.70;49.50;;;;;;5000421;28;20088;-71
2021/03/04 09:25:20;;;;;;;3.95;1.40;;;25.60;49.50;;;;;;4998279;28;20030;-68
2021/03/04 09:27:48;;;;;;;6.20;2.00;;;25.50;49.90;;;;;;4999893;28;20048;-68
2021/03/04 09:30:26;;;;;;;4.78;1.63;;;25.40;50.20;;;;;;5003169;28;20069;-69
2021/03/04 09:32:54;;;;;;;2.65;1.45;;;25.30;50.60;;;;;;5004637;28;20034;-70
2021/03/04 09:35:21;;;;;;;3.55;1.80;;;25.20;51.10;;;;;;5002103;28;20042;-67
2021/03/04 09:37:50;;;;;;;3.55;1.48;;;25.20;51.20;;;;;;5002307;28;20895;-67
2021/03/04 09:40:43;;;;;;;9.60;2.55;;;25.10;51.40;;;;;;5004254;28;20034;-67
2021/03/04 09:43:16;;;;;;;8.02;2.60;;;25.00;52.10;;;;;;4996693;28;20044;-71
2021/03/04 09:45:53;;;;;;;3.58;1.80;;;24.90;52.70;;;;;;5001292;28;20057;-68
2021/03/04 09:48:31;;;;;;;7.65;2.67;;;24.90;53.90;;;;;;5000017;28;20092;-69
2021/03/04 09:50:59;;;;;;;6.53;2.33;;;24.80;54.60;;;;;;5003051;28;20591;-68
2021/03/04 09:53:27;;;;;;;6.35;1.95;;;24.70;56.00;;;;;;5001193;28;20038;-68
2021/03/04 09:55:55;;;;;;;6.78;2.22;;;24.60;56.60;;;;;;5004607;28;20066;-69
2021/03/04 09:58:24;;;;;;;8.10;4.20;;;24.50;57.20;;;;;;5001009;28;20026;-72
2021/03/04 10:01:02;;;;;;;5.75;2.03;;;24.40;57.40;;;;;;5004144;28;20041;-69
2021/03/04 10:03:40;;;;;;;5.15;1.80;;;24.40;57.20;;;;;;5002101;28;20038;-69
2021/03/04 10:06:20;;;;;;;4.47;1.95;;;24.50;57.60;;;;;;5004376;28;20030;-67
2021/03/04 10:08:54;;;;;;;6.57;1.90;;;24.40;58.00;;;;;;4999965;28;20057;-69
2021/03/04 10:11:26;;;;;;;4.93;1.60;;;24.30;60.10;;;;;;5004461;28;20032;-68
2021/03/04 10:13:53;;;;;;;3.30;1.20;;;24.20;60.10;;;;;;5002133;28;20085;-67
2021/03/04 10:16:20;;;;;;;5.85;1.70;;;24.20;60.00;;;;;;5003787;28;20061;-69
2021/03/04 10:18:49;;;;;;;4.15;1.75;;;24.30;61.10;;;;;;4999194;28;20079;-68
2021/03/04 10:21:18;;;;;;;3.20;1.10;;;24.20;62.20;;;;;;5003379;28;20033;-70
2021/03/04 10:23:49;;;;;;;7.13;1.85;;;24.20;62.60;;;;;;5000093;28;20480;-68
2021/03/04 10:26:17;;;;;;;4.40;1.85;;;24.00;63.10;;;;;;5000986;28;20034;-71
2021/03/04 10:28:44;;;;;;;6.72;2.08;;;23.90;63.60;;;;;;4997804;28;20497;-67
2021/03/04 10:31:12;;;;;;;6.18;1.90;;;23.90;64.20;;;;;;5002986;28;20810;-68
2021/03/04 10:33:39;;;;;;;5.95;2.20;;;23.80;64.80;;;;;;5000868;28;20034;-68
2021/03/04 10:36:07;;;;;;;6.70;2.40;;;23.80;65.00;;;;;;5003166;28;20029;-68
2021/03/04 10:38:34;;;;;;;6.05;1.33;;;23.70;65.10;;;;;;4999836;28;20026;-67
2021/03/04 10:41:03;;;;;;;5.72;1.60;;;23.60;65.10;;;;;;5003548;28;20508;-69
2021/03/04 10:43:31;;;;;;;7.22;2.13;;;23.60;65.30;;;;;;4998590;28;20052;-68
2021/03/04 10:45:58;;;;;;;5.30;1.27;;;23.50;65.80;;;;;;5002286;28;20030;-67
2021/03/04 10:48:25;;;;;;;7.63;1.60;;;23.50;65.80;;;;;;4999631;28;20709;-68
2021/03/04 10:50:53;;;;;;;6.75;3.25;;;23.50;66.20;;;;;;5003615;28;20033;-69
2021/03/04 10:53:20;;;;;;;2.65;1.67;;;23.20;66.50;;;;;;5000757;28;20121;-67
2021/03/04 10:55:48;;;;;;;7.15;1.45;;;23.20;66.50;;;;;;5002806;28;20381;-69
2021/03/04 10:58:18;;;;;;;6.22;1.52;;;23.30;66.00;;;;;;5000021;28;20026;-68
2021/03/04 11:00:45;;;;;;;6.07;1.42;;;23.30;66.20;;;;;;5003449;28;20041;-69
2021/03/04 11:03:13;;;;;;;5.75;1.77;;;23.10;66.70;;;;;;5001093;28;20056;-70
2021/03/04 11:05:40;;;;;;;4.15;1.50;;;23.10;66.80;;;;;;5003448;28;20441;-68
2021/03/04 11:08:08;;;;;;;8.13;1.38;;;23.10;66.80;;;;;;4999552;28;20083;-69
2021/03/04 11:10:35;;;;;;;7.00;1.60;;;23.20;66.70;;;;;;5002559;28;20038;-68
2021/03/04 11:13:03;;;;;;;10.00;2.30;;;23.30;66.40;;;;;;5002271;28;20033;-68
2021/03/04 11:15:30;;;;;;;5.80;1.70;;;23.10;67.00;;;;;;5001377;28;20068;-68
2021/03/04 11:17:57;;;;;;;7.15;1.52;;;23.10;66.80;;;;;;4999685;28;20034;-68
2021/03/04 11:20:25;;;;;;;2.92;1.33;;;23.20;66.00;;;;;;5001823;28;20048;-68
2021/03/04 11:22:52;;;;;;;3.75;1.60;;;23.20;65.90;;;;;;5001951;28;20136;-68
2021/03/04 11:25:20;;;;;;;6.70;1.38;;;23.20;66.20;;;;;;4999565;28;20042;-68
2021/03/04 11:27:47;;;;;;;4.22;1.40;;;23.20;66.30;;;;;;5000334;28;20030;-68
2021/03/04 11:30:16;;;;;;;5.78;1.75;;;23.20;66.60;;;;;;5001034;28;20424;-69
2021/03/04 11:32:43;;;;;;;4.35;1.70;;;23.10;66.50;;;;;;5001934;28;20350;-68
2021/03/04 11:35:11;;;;;;;8.40;1.83;;;23.00;66.90;;;;;;4998860;28;20021;-70
2021/03/04 11:37:38;;;;;;;6.15;1.75;;;22.80;67.00;;;;;;4998762;28;20087;-68
2021/03/04 11:40:06;;;;;;;7.90;1.95;;;22.80;67.40;;;;;;5001074;28;20104;-68
2021/03/04 11:42:34;;;;;;;3.90;1.58;;;22.80;67.50;;;;;;5000600;28;20091;-70
2021/03/04 11:45:02;;;;;;;3.63;1.65;;;22.70;67.80;;;;;;4999386;28;20068;-67
2021/03/04 11:47:29;;;;;;;5.63;1.70;;;22.60;68.50;;;;;;4998203;28;20554;-68
2021/03/04 11:49:57;;;;;;;6.82;2.05;;;22.50;69.00;;;;;;5001224;28;20546;-68
2021/03/04 11:52:24;;;;;;;3.45;1.45;;;22.40;69.20;;;;;;4999869;28;20034;-66
2021/03/04 11:54:51;;;;;;;6.68;1.67;;;22.40;69.70;;;;;;4999449;28;20467;-68
2021/03/04 11:57:19;;;;;;;7.85;1.67;;;22.30;70.00;;;;;;4999547;28;20079;-68
2021/03/04 11:59:46;;;;;;;5.18;1.63;;;22.30;69.80;;;;;;5000226;28;20045;-67
2021/03/04 12:02:13;;;;;;;6.30;1.10;;;22.40;69.60;;;;;;5001258;28;20547;-68
2021/03/04 12:04:42;;;;;;;3.70;1.35;;;22.30;69.90;;;;;;5000817;28;20034;-68
2021/03/04 12:07:09;;;;;;;5.07;1.85;;;22.20;70.20;;;;;;4998917;28;20071;-67
2021/03/04 12:09:37;;;;;;;9.52;1.38;;;22.10;70.70;;;;;;4999623;28;20727;-70
2021/03/04 12:12:04;;;;;;;5.68;1.63;;;22.10;70.90;;;;;;5002201;28;20107;-71
2021/03/04 12:14:32;;;;;;;3.47;1.45;;;22.10;71.30;;;;;;5000599;28;20037;-71
2021/03/04 12:16:59;;;;;;;7.03;1.65;;;22.00;71.30;;;;;;4997424;28;20054;-69
2021/03/04 12:19:27;;;;;;;7.43;1.98;;;21.90;71.50;;;;;;4997989;28;20038;-67
2021/03/04 12:21:54;;;;;;;9.23;3.05;;;21.90;71.90;;;;;;5002190;28;20040;-69
2021/03/04 12:24:21;;;;;;;5.82;1.70;;;21.90;71.70;;;;;;5000188;28;20583;-69
2021/03/04 12:26:49;;;;;;;3.05;1.30;;;21.90;71.90;;;;;;5000566;28;20052;-70
2021/03/04 12:29:16;;;;;;;6.65;1.63;;;21.80;71.50;;;;;;4997729;28;20500;-67
2021/03/04 12:31:44;;;;;;;3.53;1.38;;;21.70;72.50;;;;;;5001298;28;20495;-67
2021/03/04 12:34:12;;;;;;;6.07;2.15;;;21.70;72.80;;;;;;5000153;28;20456;-68
2021/03/04 12:36:39;;;;;;;5.85;1.95;;;21.70;72.60;;;;;;5001351;28;20439;-69
2021/03/04 12:39:07;;;;;;;4.13;1.65;;;21.70;72.50;;;;;;4998989;28;20034;-67
2021/03/04 12:41:34;;;;;;;5.30;1.88;;;21.70;72.70;;;;;;5002513;28;20084;-67
2021/03/04 12:44:02;;;;;;;4.60;1.58;;;21.60;73.10;;;;;;4998627;28;20053;-68
2021/03/04 12:46:29;;;;;;;7.15;1.70;;;21.60;73.40;;;;;;5001330;28;20034;-69
2021/03/04 12:48:56;;;;;;;3.78;1.73;;;21.60;73.50;;;;;;4997435;28;20034;-68
2021/03/04 12:51:24;;;;;;;5.93;1.70;;;21.50;73.50;;;;;;5000711;28;20073;-66
2021/03/04 12:53:51;;;;;;;4.57;1.98;;;21.50;73.50;;;;;;4999932;28;20058;-67
2021/03/04 12:56:19;;;;;;;7.25;1.88;;;21.30;73.80;;;;;;4998759;28;20029;-68